createdAt,value
2023-04-30T00:00:33.619Z,14.25
2023-04-30T00:03:02.038Z,14.73
2023-04-30T00:05:31.417Z,14.93
2023-04-30T00:07:59.060Z,14.50
2023-04-30T00:10:26.936Z,15.02
2023-04-30T00:12:54.674Z,14.93
2023-04-30T00:15:22.400Z,15.57
2023-04-30T00:17:50.090Z,15.30
2023-04-30T00:20:18.520Z,15.80
2023-04-30T00:22:48.279Z,15.15
2023-04-30T00:25:16.566Z,15.43
2023-04-30T00:27:44.572Z,14.98
2023-04-30T00:30:13.311Z,15.93
2023-04-30T00:32:41.964Z,15.68
2023-04-30T00:35:11.327Z,15.18
2023-04-30T00:37:39.850Z,15.90
2023-04-30T00:40:11.739Z,16.38
2023-04-30T00:42:40.215Z,15.68
2023-04-30T00:45:09.467Z,14.70
2023-04-30T00:47:37.991Z,15.45
2023-04-30T00:50:08.127Z,15.68
2023-04-30T00:52:36.251Z,16.45
2023-04-30T00:55:08.791Z,15.70
2023-04-30T00:57:39.623Z,15.27
2023-04-30T01:00:11.337Z,15.93
2023-04-30T01:02:39.405Z,15.18
2023-04-30T01:05:09.083Z,16.42
2023-04-30T01:07:41.768Z,16.45
2023-04-30T01:10:10.790Z,16.45
2023-04-30T01:12:47.678Z,17.30
2023-04-30T01:15:24.053Z,16.52
2023-04-30T01:17:57.765Z,17.50
2023-04-30T01:20:29.502Z,17.38
2023-04-30T01:23:10.696Z,17.00
2023-04-30T01:26:07.604Z,16.65
2023-04-30T01:28:37.509Z,17.92
2023-04-30T01:31:13.703Z,16.42
2023-04-30T01:33:41.925Z,16.58
2023-04-30T01:36:27.329Z,16.48
2023-04-30T01:39:17.680Z,17.27
2023-04-30T01:41:54.895Z,16.80
2023-04-30T01:44:47.064Z,17.08
2023-04-30T01:47:31.501Z,17.30
2023-04-30T01:50:16.661Z,16.58
2023-04-30T01:52:48.226Z,17.10
2023-04-30T01:55:21.260Z,17.88
2023-04-30T01:57:58.155Z,17.40
2023-04-30T02:00:28.859Z,17.15
2023-04-30T02:02:57.214Z,17.48
2023-04-30T02:05:25.175Z,18.08
2023-04-30T02:07:53.840Z,17.20
2023-04-30T02:10:25.095Z,18.65
2023-04-30T02:12:53.373Z,17.70
2023-04-30T02:15:21.412Z,18.25
2023-04-30T02:17:50.630Z,17.63
2023-04-30T02:20:18.631Z,18.00
2023-04-30T02:22:46.803Z,17.90
2023-04-30T02:25:14.815Z,18.17
2023-04-30T02:27:42.495Z,18.67
2023-04-30T02:30:11.048Z,18.20
2023-04-30T02:32:38.822Z,17.17
2023-04-30T02:35:08.916Z,18.48
2023-04-30T02:37:36.784Z,17.95
2023-04-30T02:40:05.116Z,18.88
2023-04-30T02:42:32.900Z,18.20
2023-04-30T02:45:00.554Z,18.33
2023-04-30T02:47:28.554Z,17.88
2023-04-30T02:49:56.567Z,18.85
2023-04-30T02:52:26.224Z,19.33
2023-04-30T02:54:54.005Z,19.25
2023-04-30T02:57:21.907Z,19.20
2023-04-30T02:59:50.062Z,19.95
2023-04-30T03:02:21.689Z,19.90
2023-04-30T03:04:49.673Z,19.40
2023-04-30T03:07:17.374Z,19.77
2023-04-30T03:09:47.669Z,19.48
2023-04-30T03:12:15.828Z,20.35
2023-04-30T03:14:43.634Z,19.67
2023-04-30T03:17:11.625Z,20.55
2023-04-30T03:19:39.379Z,20.25
2023-04-30T03:22:07.058Z,20.70
2023-04-30T03:24:35.106Z,20.65
2023-04-30T03:27:04.552Z,20.60
2023-04-30T03:29:32.267Z,21.02
2023-04-30T03:32:00.118Z,21.95
2023-04-30T03:34:27.911Z,21.60
2023-04-30T03:36:56.435Z,20.80
2023-04-30T03:39:24.808Z,21.13
2023-04-30T03:41:52.557Z,20.85
2023-04-30T03:44:23.609Z,20.00
2023-04-30T03:46:51.447Z,21.15
2023-04-30T03:49:19.549Z,21.52
2023-04-30T03:51:47.243Z,21.05
2023-04-30T03:54:15.485Z,21.00
2023-04-30T03:56:44.344Z,21.30
2023-04-30T03:59:12.269Z,22.17
2023-04-30T04:01:42.273Z,21.33
2023-04-30T04:04:10.214Z,20.83
2023-04-30T04:06:38.062Z,22.00
2023-04-30T04:09:06.549Z,22.02
2023-04-30T04:11:34.657Z,21.85
2023-04-30T04:14:03.011Z,21.33
2023-04-30T04:16:31.103Z,22.08
2023-04-30T04:19:01.093Z,21.60
2023-04-30T04:21:29.812Z,21.27
2023-04-30T04:23:58.276Z,22.50
2023-04-30T04:26:28.963Z,21.23
2023-04-30T04:28:56.807Z,21.40
2023-04-30T04:31:24.819Z,22.38
2023-04-30T04:33:58.156Z,23.15
2023-04-30T04:36:28.938Z,23.17
2023-04-30T04:39:02.006Z,22.55
2023-04-30T04:41:30.507Z,22.90
2023-04-30T04:43:58.451Z,23.65
2023-04-30T04:46:28.260Z,23.00
2023-04-30T04:48:56.313Z,23.20
2023-04-30T04:51:24.172Z,23.17
2023-04-30T04:53:53.310Z,22.63
2023-04-30T04:56:21.356Z,23.88
2023-04-30T04:58:49.087Z,22.63
2023-04-30T05:01:17.430Z,23.65
2023-04-30T05:03:47.634Z,23.63
2023-04-30T05:06:15.984Z,22.08
2023-04-30T05:08:43.821Z,23.23
2023-04-30T05:11:15.618Z,22.98
2023-04-30T05:13:43.937Z,22.10
2023-04-30T05:16:11.911Z,20.70
2023-04-30T05:18:39.818Z,22.25
2023-04-30T05:21:08.311Z,22.42
2023-04-30T05:23:36.675Z,22.48
2023-04-30T05:26:05.414Z,22.23
2023-04-30T05:28:37.285Z,20.88
2023-04-30T05:31:05.257Z,22.10
2023-04-30T05:33:33.941Z,22.38
2023-04-30T05:36:01.847Z,21.85
2023-04-30T05:38:29.535Z,22.95
2023-04-30T05:40:57.179Z,20.50
2023-04-30T05:43:24.860Z,21.02
2023-04-30T05:45:54.193Z,21.52
2023-04-30T05:48:21.860Z,21.08
2023-04-30T05:50:49.637Z,20.35
2023-04-30T05:53:17.277Z,21.73
2023-04-30T05:55:45.008Z,20.02
2023-04-30T05:58:13.309Z,20.67
2023-04-30T06:00:41.008Z,21.55
2023-04-30T06:03:10.205Z,20.05
2023-04-30T06:05:38.297Z,19.65
2023-04-30T06:08:06.335Z,20.60
2023-04-30T06:10:34.345Z,20.20
2023-04-30T06:13:02.071Z,19.63
2023-04-30T06:15:29.751Z,19.48
2023-04-30T06:17:57.577Z,20.05
2023-04-30T06:20:27.282Z,19.25
2023-04-30T06:22:55.570Z,20.15
2023-04-30T06:25:23.314Z,19.95
2023-04-30T06:27:54.370Z,19.70
2023-04-30T06:30:22.203Z,19.25
2023-04-30T06:32:50.105Z,19.70
2023-04-30T06:35:17.949Z,19.63
2023-04-30T06:37:47.022Z,19.08
2023-04-30T06:40:15.723Z,19.60
2023-04-30T06:42:45.058Z,18.33
2023-04-30T06:45:15.201Z,19.08
2023-04-30T06:47:44.836Z,18.73
2023-04-30T06:50:12.601Z,18.98
2023-04-30T06:52:41.133Z,18.10
2023-04-30T06:55:10.762Z,18.67
2023-04-30T06:57:38.547Z,17.95
2023-04-30T07:00:07.389Z,17.98
2023-04-30T07:02:35.151Z,18.88
2023-04-30T07:05:03.227Z,16.95
2023-04-30T07:07:32.703Z,17.30
2023-04-30T07:10:04.066Z,17.85
2023-04-30T07:12:33.439Z,17.88
2023-04-30T07:15:06.016Z,17.92
2023-04-30T07:17:43.256Z,17.77
2023-04-30T07:20:14.848Z,17.58
2023-04-30T07:22:44.718Z,16.60
2023-04-30T07:25:12.690Z,17.10
2023-04-30T07:27:42.195Z,16.52
2023-04-30T07:30:10.927Z,17.15
2023-04-30T07:32:40.981Z,16.45
2023-04-30T07:35:09.442Z,13.98
2023-04-30T07:37:41.218Z,12.85
2023-04-30T07:40:15.399Z,10.88
2023-04-30T07:42:46.587Z,11.45
2023-04-30T07:45:15.466Z,11.05
2023-04-30T07:47:43.327Z,11.02
2023-04-30T07:50:12.317Z,11.50
2023-04-30T07:52:40.060Z,11.40
2023-04-30T07:55:08.703Z,10.48
2023-04-30T07:57:36.508Z,9.85
2023-04-30T08:00:07.307Z,10.15
2023-04-30T08:02:40.221Z,8.90
2023-04-30T08:05:09.385Z,9.27
2023-04-30T08:07:37.592Z,8.93
2023-04-30T08:10:06.375Z,8.98
2023-04-30T08:12:37.448Z,8.77
2023-04-30T08:15:08.548Z,8.73
2023-04-30T08:17:36.734Z,9.15
2023-04-30T08:20:06.781Z,9.48
2023-04-30T08:22:34.909Z,8.40
2023-04-30T08:25:03.210Z,8.52
2023-04-30T08:27:32.389Z,7.95
2023-04-30T08:30:00.087Z,8.40
2023-04-30T08:32:29.805Z,7.75
2023-04-30T08:34:57.862Z,7.30
2023-04-30T08:37:25.646Z,7.20
2023-04-30T08:39:53.521Z,7.07
2023-04-30T08:42:25.966Z,7.43
2023-04-30T08:44:53.647Z,6.20
2023-04-30T08:47:22.583Z,6.22
2023-04-30T08:49:52.017Z,6.93
2023-04-30T08:52:20.121Z,7.18
2023-04-30T08:54:49.046Z,7.53
2023-04-30T08:57:16.818Z,5.97
2023-04-30T08:59:46.200Z,5.00
2023-04-30T09:02:14.223Z,4.25
2023-04-30T09:04:43.446Z,4.00
2023-04-30T09:07:14.591Z,4.40
2023-04-30T09:09:43.100Z,4.13
2023-04-30T09:12:18.673Z,3.30
2023-04-30T09:15:02.972Z,3.10
2023-04-30T09:17:31.494Z,3.28
2023-04-30T09:20:08.415Z,4.13
2023-04-30T09:22:39.134Z,3.10
2023-04-30T09:25:08.373Z,4.05
2023-04-30T09:27:37.035Z,4.07
2023-04-30T09:30:05.675Z,4.13
2023-04-30T09:32:40.756Z,3.92
2023-04-30T09:35:33.209Z,4.30
2023-04-30T09:38:08.177Z,4.38
2023-04-30T09:40:38.640Z,5.28
2023-04-30T09:43:06.887Z,5.43
2023-04-30T09:45:47.492Z,4.35
2023-04-30T09:48:18.076Z,4.15
2023-04-30T09:50:47.205Z,4.03
2023-04-30T09:53:17.933Z,4.50
2023-04-30T09:55:47.746Z,4.18
2023-04-30T09:58:17.372Z,4.43
2023-04-30T10:00:48.356Z,4.20
2023-04-30T10:03:20.180Z,3.58
2023-04-30T10:05:58.089Z,4.10
2023-04-30T10:08:31.870Z,3.45
2023-04-30T10:11:04.031Z,3.50
2023-04-30T10:13:34.347Z,2.70
2023-04-30T10:16:10.611Z,2.80
2023-04-30T10:18:43.800Z,2.80
2023-04-30T10:21:16.503Z,2.67
2023-04-30T10:23:45.930Z,3.28
2023-04-30T10:26:16.648Z,2.80
2023-04-30T10:28:44.370Z,2.03
2023-04-30T10:31:14.418Z,2.40
2023-04-30T10:33:51.528Z,2.35
2023-04-30T10:36:27.735Z,2.70
2023-04-30T10:38:56.923Z,2.60
2023-04-30T10:41:28.239Z,2.42
2023-04-30T10:44:01.781Z,2.50
2023-04-30T10:46:30.500Z,2.50
2023-04-30T10:49:00.143Z,2.65
2023-04-30T10:51:46.506Z,2.25
2023-04-30T10:54:18.620Z,2.00
2023-04-30T10:56:48.488Z,2.00
2023-04-30T10:59:16.379Z,2.35
2023-04-30T11:02:03.546Z,1.73
2023-04-30T11:04:31.600Z,2.15
2023-04-30T11:07:09.921Z,2.00
2023-04-30T11:09:42.343Z,1.90
2023-04-30T11:12:15.333Z,2.10
2023-04-30T11:14:45.189Z,1.70
2023-04-30T11:17:14.665Z,2.00
2023-04-30T11:19:53.335Z,1.73
2023-04-30T11:22:24.320Z,1.38
2023-04-30T11:25:05.304Z,1.30
2023-04-30T11:27:34.672Z,1.50
2023-04-30T11:30:03.310Z,1.58
2023-04-30T11:32:35.587Z,1.58
2023-04-30T11:35:04.564Z,1.63
2023-04-30T11:37:33.809Z,1.80
2023-04-30T11:40:05.957Z,1.75
2023-04-30T11:42:35.586Z,1.75
2023-04-30T11:45:09.003Z,2.40
2023-04-30T11:47:46.925Z,1.83
2023-04-30T11:50:16.632Z,1.20
2023-04-30T11:52:50.952Z,1.27
2023-04-30T11:55:21.372Z,1.90
2023-04-30T11:57:50.441Z,1.40
2023-04-30T12:00:20.112Z,1.20
2023-04-30T12:02:50.306Z,1.35
2023-04-30T12:05:20.163Z,1.30
2023-04-30T12:07:49.381Z,1.50
2023-04-30T12:10:17.718Z,1.20
2023-04-30T12:12:49.298Z,1.30
2023-04-30T12:15:20.013Z,1.30
2023-04-30T12:17:47.868Z,1.85
2023-04-30T12:20:16.525Z,1.40
2023-04-30T12:22:45.181Z,1.50
2023-04-30T12:25:14.776Z,1.42
2023-04-30T12:27:43.521Z,1.50
2023-04-30T12:30:13.765Z,1.27
2023-04-30T12:32:43.625Z,1.60
2023-04-30T12:35:16.632Z,1.40
2023-04-30T12:37:45.720Z,1.40
2023-04-30T12:40:14.669Z,1.20
2023-04-30T12:42:43.641Z,1.60
2023-04-30T12:45:13.644Z,1.30
2023-04-30T12:47:43.325Z,1.25
2023-04-30T12:50:13.366Z,1.13
2023-04-30T12:52:42.180Z,1.13
2023-04-30T12:55:19.591Z,1.20
2023-04-30T12:58:07.548Z,1.45
2023-04-30T13:00:47.749Z,1.40
2023-04-30T13:03:18.129Z,1.17
2023-04-30T13:05:49.309Z,1.40
2023-04-30T13:08:18.196Z,1.17
2023-04-30T13:10:46.437Z,1.45
2023-04-30T13:13:15.270Z,1.10
2023-04-30T13:15:44.135Z,1.77
2023-04-30T13:18:15.990Z,1.40
2023-04-30T13:20:44.658Z,1.38
2023-04-30T13:23:13.004Z,1.50
2023-04-30T13:25:41.819Z,1.20
2023-04-30T13:28:09.735Z,1.17
2023-04-30T13:30:39.942Z,1.20
2023-04-30T13:33:07.729Z,1.30
2023-04-30T13:35:38.726Z,1.10
2023-04-30T13:38:07.005Z,1.40
2023-04-30T13:40:34.977Z,1.00
2023-04-30T13:43:03.670Z,1.08
2023-04-30T13:45:36.721Z,1.20
2023-04-30T13:48:04.716Z,1.20
2023-04-30T13:50:32.768Z,1.10
2023-04-30T13:53:02.121Z,1.20
2023-04-30T13:55:30.687Z,1.13
2023-04-30T13:57:58.705Z,1.40
2023-04-30T14:00:26.653Z,1.13
2023-04-30T14:02:55.647Z,1.00
2023-04-30T14:05:23.864Z,1.27
2023-04-30T14:07:51.593Z,1.00
2023-04-30T14:10:20.841Z,1.20
2023-04-30T14:12:48.768Z,1.10
2023-04-30T14:15:16.654Z,1.23
2023-04-30T14:17:45.019Z,0.90
2023-04-30T14:20:14.059Z,1.00
2023-04-30T14:22:41.737Z,1.17
2023-04-30T14:25:10.669Z,1.10
2023-04-30T14:27:40.846Z,1.05
2023-04-30T14:30:10.112Z,1.20
2023-04-30T14:32:38.614Z,1.00
2023-04-30T14:35:07.513Z,1.30
2023-04-30T14:37:35.321Z,1.13
2023-04-30T14:40:03.232Z,1.13
2023-04-30T14:42:30.989Z,1.00
2023-04-30T14:45:00.077Z,1.15
2023-04-30T14:47:29.103Z,1.95
2023-04-30T14:49:58.786Z,0.95
2023-04-30T14:52:26.510Z,1.13
2023-04-30T14:54:54.265Z,0.90
2023-04-30T14:57:23.476Z,0.98
2023-04-30T14:59:52.918Z,1.17
2023-04-30T15:02:22.736Z,1.20
2023-04-30T15:04:50.949Z,1.10
2023-04-30T15:07:20.167Z,0.93
2023-04-30T15:09:48.431Z,1.00
2023-04-30T15:12:16.439Z,0.85
2023-04-30T15:14:44.780Z,1.08
2023-04-30T15:17:12.420Z,0.98
2023-04-30T15:19:42.218Z,1.02
2023-04-30T15:22:10.058Z,1.00
2023-04-30T15:24:38.184Z,1.00
2023-04-30T15:27:06.092Z,1.10
2023-04-30T15:29:36.047Z,1.05
2023-04-30T15:32:04.698Z,1.45
2023-04-30T15:34:33.041Z,1.30
2023-04-30T15:37:02.846Z,1.05
2023-04-30T15:39:31.328Z,1.38
2023-04-30T15:41:59.270Z,1.30
2023-04-30T15:44:27.016Z,1.00
2023-04-30T15:46:54.986Z,1.10
2023-04-30T15:49:23.315Z,0.80
2023-04-30T15:51:52.512Z,1.00
2023-04-30T15:54:23.325Z,0.90
2023-04-30T15:56:51.552Z,1.45
2023-04-30T15:59:19.860Z,0.98
2023-04-30T16:01:48.018Z,1.23
2023-04-30T16:04:17.191Z,1.00
2023-04-30T16:06:45.266Z,0.90
2023-04-30T16:09:17.352Z,0.90
2023-04-30T16:11:47.445Z,1.00
2023-04-30T16:14:15.167Z,1.33
2023-04-30T16:16:43.425Z,1.30
2023-04-30T16:19:12.475Z,1.20
2023-04-30T16:21:41.288Z,1.20
2023-04-30T16:24:10.392Z,0.95
2023-04-30T16:26:38.287Z,1.10
2023-04-30T16:29:07.711Z,1.05
2023-04-30T16:31:35.679Z,1.10
2023-04-30T16:34:03.501Z,1.20
2023-04-30T16:36:31.123Z,1.27
2023-04-30T16:38:59.199Z,1.23
2023-04-30T16:41:26.871Z,1.15
2023-04-30T16:43:54.807Z,1.05
2023-04-30T16:46:23.905Z,1.60
2023-04-30T16:48:51.967Z,1.20
2023-04-30T16:51:19.842Z,0.90
2023-04-30T16:53:48.217Z,0.90
2023-04-30T16:56:15.912Z,0.90
2023-04-30T16:58:43.547Z,1.10
2023-04-30T17:01:11.430Z,1.25
2023-04-30T17:03:40.932Z,1.10
2023-04-30T17:06:08.822Z,1.08
2023-04-30T17:08:37.259Z,1.00
2023-04-30T17:11:06.235Z,1.08
2023-04-30T17:13:34.541Z,1.05
2023-04-30T17:16:03.340Z,1.20
2023-04-30T17:18:31.169Z,1.10
2023-04-30T17:21:00.555Z,1.00
2023-04-30T17:23:28.189Z,1.20
2023-04-30T17:25:56.377Z,1.00
2023-04-30T17:28:24.298Z,1.00
2023-04-30T17:30:52.738Z,0.90
2023-04-30T17:33:20.468Z,1.20
2023-04-30T17:35:48.140Z,1.10
2023-04-30T17:38:17.339Z,1.02
2023-04-30T17:40:45.279Z,1.13
2023-04-30T17:43:13.089Z,1.17
2023-04-30T17:45:41.454Z,1.20
2023-04-30T17:48:09.195Z,1.38
2023-04-30T17:50:37.350Z,1.20
2023-04-30T17:53:05.118Z,1.13
2023-04-30T17:55:34.202Z,1.15
2023-04-30T17:58:04.201Z,1.20
2023-04-30T18:00:32.309Z,1.40
2023-04-30T18:03:00.250Z,1.15
2023-04-30T18:05:28.240Z,1.05
2023-04-30T18:07:56.105Z,0.90
2023-04-30T18:10:23.791Z,1.20
2023-04-30T18:12:53.585Z,1.58
2023-04-30T18:15:21.925Z,1.90
2023-04-30T18:17:49.831Z,2.60
2023-04-30T18:20:17.751Z,2.60
2023-04-30T18:22:45.673Z,2.15
2023-04-30T18:25:14.355Z,1.80
2023-04-30T18:27:42.163Z,1.75
2023-04-30T18:30:12.655Z,1.40
2023-04-30T18:32:42.092Z,1.67
2023-04-30T18:35:11.044Z,1.50
2023-04-30T18:37:39.477Z,1.63
2023-04-30T18:40:08.719Z,1.30
2023-04-30T18:42:37.705Z,1.60
2023-04-30T18:45:07.004Z,1.48
2023-04-30T18:47:36.670Z,1.60
2023-04-30T18:50:05.585Z,1.42
2023-04-30T18:52:33.470Z,1.45
2023-04-30T18:55:01.198Z,1.50
2023-04-30T18:57:29.202Z,1.27
2023-04-30T18:59:57.458Z,1.50
2023-04-30T19:02:25.758Z,1.73
2023-04-30T19:04:55.287Z,2.70
2023-04-30T19:07:23.320Z,2.65
2023-04-30T19:09:51.807Z,5.15
2023-04-30T19:12:19.514Z,5.25
2023-04-30T19:14:47.381Z,3.33
2023-04-30T19:17:15.236Z,2.90
2023-04-30T19:19:43.985Z,2.40
2023-04-30T19:22:13.082Z,2.22
2023-04-30T19:24:41.177Z,2.00
2023-04-30T19:27:09.315Z,1.55
2023-04-30T19:29:39.295Z,1.77
2023-04-30T19:32:08.146Z,1.77
2023-04-30T19:34:36.524Z,1.60
2023-04-30T19:37:04.531Z,1.60
2023-04-30T19:39:36.575Z,1.75
2023-04-30T19:42:06.147Z,1.70
2023-04-30T19:44:33.937Z,1.90
2023-04-30T19:47:02.834Z,2.00
2023-04-30T19:49:30.809Z,2.10
2023-04-30T19:51:59.323Z,2.47
2023-04-30T19:54:27.040Z,2.72
2023-04-30T19:56:57.784Z,2.65
2023-04-30T19:59:26.734Z,3.05
2023-04-30T20:01:54.610Z,2.95
2023-04-30T20:04:22.869Z,3.13
2023-04-30T20:06:56.714Z,3.03
2023-04-30T20:09:24.887Z,2.83
2023-04-30T20:11:52.622Z,3.63
2023-04-30T20:14:24.047Z,3.65
2023-04-30T20:16:54.148Z,3.05
2023-04-30T20:19:23.237Z,2.80
2023-04-30T20:21:51.907Z,2.75
2023-04-30T20:24:21.782Z,2.35
2023-04-30T20:26:49.835Z,2.17
2023-04-30T20:29:20.568Z,2.10
2023-04-30T20:31:50.370Z,2.10
2023-04-30T20:34:18.276Z,1.88
2023-04-30T20:36:45.942Z,2.20
2023-04-30T20:39:14.626Z,2.30
2023-04-30T20:41:43.572Z,2.10
2023-04-30T20:44:11.484Z,2.30
2023-04-30T20:46:39.289Z,1.80
2023-04-30T20:49:10.991Z,2.00
2023-04-30T20:51:39.625Z,2.83
2023-04-30T20:54:08.633Z,2.70
2023-04-30T20:56:36.800Z,2.28
2023-04-30T20:59:05.846Z,2.75
2023-04-30T21:01:33.684Z,2.70
2023-04-30T21:04:01.486Z,2.20
2023-04-30T21:06:31.871Z,2.20
2023-04-30T21:08:59.976Z,2.33
2023-04-30T21:11:28.972Z,1.92
2023-04-30T21:13:57.713Z,1.98
2023-04-30T21:16:25.431Z,1.90
2023-04-30T21:18:53.365Z,2.00
2023-04-30T21:21:21.084Z,2.22
2023-04-30T21:23:50.442Z,2.47
2023-04-30T21:26:18.177Z,2.42
2023-04-30T21:28:46.522Z,2.40
2023-04-30T21:31:14.742Z,2.63
2023-04-30T21:33:42.436Z,2.20
2023-04-30T21:36:10.244Z,2.45
2023-04-30T21:38:38.800Z,2.90
2023-04-30T21:41:07.923Z,2.75
2023-04-30T21:43:35.626Z,2.53
2023-04-30T21:46:04.027Z,2.45
2023-04-30T21:48:31.811Z,2.78
2023-04-30T21:50:59.518Z,2.13
2023-04-30T21:53:27.317Z,1.90
2023-04-30T21:55:55.361Z,2.42
2023-04-30T21:58:25.344Z,2.15
2023-04-30T22:00:55.197Z,2.28
2023-04-30T22:03:23.159Z,2.50
2023-04-30T22:05:50.893Z,2.55
2023-04-30T22:08:18.862Z,2.13
2023-04-30T22:10:46.799Z,2.15
2023-04-30T22:13:15.101Z,2.50
2023-04-30T22:15:48.257Z,2.45
2023-04-30T22:18:16.955Z,2.15
2023-04-30T22:20:44.888Z,2.50
2023-04-30T22:23:12.557Z,2.38
2023-04-30T22:25:43.128Z,2.10
2023-04-30T22:28:11.309Z,2.50
2023-04-30T22:30:39.756Z,2.55
2023-04-30T22:33:09.138Z,2.47
2023-04-30T22:35:38.605Z,2.58
2023-04-30T22:38:06.576Z,2.90
2023-04-30T22:40:35.691Z,2.80
2023-04-30T22:43:05.224Z,2.50
2023-04-30T22:45:36.879Z,2.72
2023-04-30T22:48:05.575Z,2.60
2023-04-30T22:50:35.630Z,2.80
2023-04-30T22:53:03.645Z,2.83
2023-04-30T22:55:32.930Z,2.33
2023-04-30T22:58:01.900Z,2.42
2023-04-30T23:00:29.582Z,2.80
2023-04-30T23:02:57.621Z,2.33
2023-04-30T23:05:26.391Z,2.30
2023-04-30T23:07:55.599Z,2.55
2023-04-30T23:10:23.363Z,2.78
2023-04-30T23:12:52.347Z,2.22
2023-04-30T23:15:20.157Z,2.63
2023-04-30T23:17:47.978Z,2.92
2023-04-30T23:20:16.670Z,2.70
2023-04-30T23:22:44.676Z,2.70
2023-04-30T23:25:13.778Z,2.60
2023-04-30T23:27:41.495Z,2.72
2023-04-30T23:30:11.202Z,2.42
2023-04-30T23:32:39.525Z,2.80
2023-04-30T23:35:09.230Z,2.67
2023-04-30T23:37:37.673Z,3.13
2023-04-30T23:40:07.485Z,2.42
2023-04-30T23:42:37.033Z,2.70
2023-04-30T23:45:05.786Z,2.35
2023-04-30T23:47:36.394Z,2.55
2023-04-30T23:50:04.663Z,2.40
2023-04-30T23:52:33.171Z,2.55
2023-04-30T23:55:00.884Z,2.42
2023-04-30T23:57:28.917Z,2.83
2023-04-30T23:59:58.614Z,2.50
